sensor_id;sensor_type;location;lat;lon;timestamp;P1;durP1;ratioP1;P2;durP2;ratioP2
62894;SDS011;49204;44.916;37.998;2023-03-23T00:01:45;16.70;;;6.37;;
62894;SDS011;49204;44.916;37.998;2023-03-23T00:04:15;16.25;;;6.33;;
62894;SDS011;49204;44.916;37.998;2023-03-23T00:06:45;15.68;;;6.58;;
62894;SDS011;49204;44.916;37.998;2023-03-23T00:09:14;13.72;;;5.80;;
62894;SDS011;49204;44.916;37.998;2023-03-23T00:11:43;14.85;;;5.62;;
62894;SDS011;49204;44.916;37.998;2023-03-23T00:14:12;21.17;;;6.12;;
62894;SDS011;49204;44.916;37.998;2023-03-23T00:16:40;20.05;;;6.12;;
62894;SDS011;49204;44.916;37.998;2023-03-23T00:19:11;13.70;;;6.28;;
62894;SDS011;49204;44.916;37.998;2023-03-23T00:21:40;16.37;;;6.35;;
62894;SDS011;49204;44.916;37.998;2023-03-23T00:24:11;16.50;;;6.15;;
62894;SDS011;49204;44.916;37.998;2023-03-23T00:26:44;14.00;;;6.22;;
62894;SDS011;49204;44.916;37.998;2023-03-23T00:29:15;21.77;;;6.33;;
62894;SDS011;49204;44.916;37.998;2023-03-23T00:31:49;17.40;;;6.42;;
62894;SDS011;49204;44.916;37.998;2023-03-23T00:34:19;13.98;;;5.85;;
62894;SDS011;49204;44.916;37.998;2023-03-23T00:36:54;18.75;;;6.28;;
62894;SDS011;49204;44.916;37.998;2023-03-23T00:39:23;16.00;;;6.58;;
62894;SDS011;49204;44.916;37.998;2023-03-23T00:41:53;23.70;;;6.80;;
62894;SDS011;49204;44.916;37.998;2023-03-23T00:44:24;12.85;;;5.78;;
62894;SDS011;49204;44.916;37.998;2023-03-23T00:46:54;13.70;;;5.85;;
62894;SDS011;49204;44.916;37.998;2023-03-23T00:49:24;17.48;;;7.22;;
62894;SDS011;49204;44.916;37.998;2023-03-23T00:51:54;16.32;;;6.25;;
62894;SDS011;49204;44.916;37.998;2023-03-23T00:54:25;19.70;;;7.60;;
62894;SDS011;49204;44.916;37.998;2023-03-23T00:56:55;16.85;;;7.22;;
62894;SDS011;49204;44.916;37.998;2023-03-23T00:59:23;22.30;;;6.37;;
62894;SDS011;49204;44.916;37.998;2023-03-23T01:01:52;16.73;;;6.65;;
62894;SDS011;49204;44.916;37.998;2023-03-23T01:04:21;17.52;;;7.10;;
62894;SDS011;49204;44.916;37.998;2023-03-23T01:06:50;16.42;;;8.65;;
62894;SDS011;49204;44.916;37.998;2023-03-23T01:09:19;37.70;;;19.60;;
62894;SDS011;49204;44.916;37.998;2023-03-23T01:11:50;58.42;;;26.40;;
62894;SDS011;49204;44.916;37.998;2023-03-23T01:14:22;49.55;;;26.80;;
62894;SDS011;49204;44.916;37.998;2023-03-23T01:16:51;38.85;;;22.82;;
62894;SDS011;49204;44.916;37.998;2023-03-23T01:19:20;46.83;;;26.48;;
62894;SDS011;49204;44.916;37.998;2023-03-23T01:21:49;43.50;;;24.82;;
62894;SDS011;49204;44.916;37.998;2023-03-23T01:24:17;44.75;;;22.65;;
62894;SDS011;49204;44.916;37.998;2023-03-23T01:26:46;21.45;;;12.65;;
62894;SDS011;49204;44.916;37.998;2023-03-23T01:29:16;30.77;;;18.60;;
62894;SDS011;49204;44.916;37.998;2023-03-23T01:31:45;32.93;;;22.00;;
62894;SDS011;49204;44.916;37.998;2023-03-23T01:34:13;40.03;;;23.20;;
62894;SDS011;49204;44.916;37.998;2023-03-23T01:36:42;42.38;;;27.27;;
62894;SDS011;49204;44.916;37.998;2023-03-23T01:39:11;50.67;;;29.57;;
62894;SDS011;49204;44.916;37.998;2023-03-23T01:41:39;45.25;;;29.10;;
62894;SDS011;49204;44.916;37.998;2023-03-23T01:46:52;44.15;;;28.50;;
62894;SDS011;49204;44.916;37.998;2023-03-23T01:49:22;41.98;;;21.90;;
62894;SDS011;49204;44.916;37.998;2023-03-23T01:51:54;33.90;;;18.62;;
62894;SDS011;49204;44.916;37.998;2023-03-23T01:54:24;31.10;;;17.57;;
62894;SDS011;49204;44.916;37.998;2023-03-23T01:56:59;40.45;;;22.52;;
62894;SDS011;49204;44.916;37.998;2023-03-23T01:59:29;36.17;;;20.52;;
62894;SDS011;49204;44.916;37.998;2023-03-23T02:02:03;37.30;;;24.50;;
62894;SDS011;49204;44.916;37.998;2023-03-23T02:04:32;35.28;;;23.25;;
62894;SDS011;49204;44.916;37.998;2023-03-23T02:07:02;36.50;;;23.77;;
62894;SDS011;49204;44.916;37.998;2023-03-23T02:09:33;37.33;;;23.92;;
62894;SDS011;49204;44.916;37.998;2023-03-23T02:12:02;33.58;;;22.30;;
62894;SDS011;49204;44.916;37.998;2023-03-23T02:14:31;38.78;;;22.10;;
62894;SDS011;49204;44.916;37.998;2023-03-23T02:17:10;26.60;;;14.95;;
62894;SDS011;49204;44.916;37.998;2023-03-23T02:25:35;20.05;;;11.00;;
62894;SDS011;49204;44.916;37.998;2023-03-23T02:28:26;24.45;;;13.03;;
62894;SDS011;49204;44.916;37.998;2023-03-23T02:34:05;32.10;;;17.55;;
62894;SDS011;49204;44.916;37.998;2023-03-23T02:36:50;28.07;;;16.87;;
62894;SDS011;49204;44.916;37.998;2023-03-23T02:39:32;30.30;;;21.75;;
62894;SDS011;49204;44.916;37.998;2023-03-23T02:44:41;33.38;;;23.52;;
62894;SDS011;49204;44.916;37.998;2023-03-23T02:47:07;28.92;;;20.60;;
62894;SDS011;49204;44.916;37.998;2023-03-23T02:49:38;38.35;;;18.45;;
62894;SDS011;49204;44.916;37.998;2023-03-23T02:52:15;29.12;;;15.15;;
62894;SDS011;49204;44.916;37.998;2023-03-23T02:54:43;22.20;;;10.68;;
62894;SDS011;49204;44.916;37.998;2023-03-23T02:57:14;17.73;;;8.20;;
62894;SDS011;49204;44.916;37.998;2023-03-23T02:59:44;21.87;;;10.40;;
62894;SDS011;49204;44.916;37.998;2023-03-23T03:02:49;22.27;;;13.48;;
62894;SDS011;49204;44.916;37.998;2023-03-23T03:05:00;31.05;;;17.65;;
62894;SDS011;49204;44.916;37.998;2023-03-23T03:07:47;25.72;;;13.93;;
62894;SDS011;49204;44.916;37.998;2023-03-23T03:15:36;20.32;;;9.45;;
62894;SDS011;49204;44.916;37.998;2023-03-23T03:18:12;22.77;;;9.65;;
62894;SDS011;49204;44.916;37.998;2023-03-23T03:20:43;28.67;;;12.98;;
62894;SDS011;49204;44.916;37.998;2023-03-23T03:23:15;29.37;;;13.98;;
62894;SDS011;49204;44.916;37.998;2023-03-23T03:25:45;27.37;;;14.15;;
62894;SDS011;49204;44.916;37.998;2023-03-23T03:28:18;16.50;;;9.43;;
62894;SDS011;49204;44.916;37.998;2023-03-23T03:30:56;20.57;;;10.97;;
62894;SDS011;49204;44.916;37.998;2023-03-23T03:33:22;24.12;;;8.35;;
62894;SDS011;49204;44.916;37.998;2023-03-23T03:35:53;19.77;;;7.58;;
62894;SDS011;49204;44.916;37.998;2023-03-23T03:38:24;18.98;;;7.15;;
62894;SDS011;49204;44.916;37.998;2023-03-23T03:40:55;18.57;;;9.45;;
62894;SDS011;49204;44.916;37.998;2023-03-23T03:43:24;25.52;;;11.10;;
62894;SDS011;49204;44.916;37.998;2023-03-23T03:45:53;25.75;;;12.18;;
62894;SDS011;49204;44.916;37.998;2023-03-23T03:48:22;22.05;;;13.43;;
62894;SDS011;49204;44.916;37.998;2023-03-23T03:50:50;29.95;;;11.57;;
62894;SDS011;49204;44.916;37.998;2023-03-23T03:53:21;25.52;;;11.63;;
62894;SDS011;49204;44.916;37.998;2023-03-23T03:55:50;23.52;;;12.55;;
62894;SDS011;49204;44.916;37.998;2023-03-23T03:58:23;29.95;;;15.70;;
62894;SDS011;49204;44.916;37.998;2023-03-23T04:00:59;28.25;;;18.30;;
62894;SDS011;49204;44.916;37.998;2023-03-23T04:03:29;30.55;;;19.48;;
62894;SDS011;49204;44.916;37.998;2023-03-23T04:06:06;24.87;;;12.65;;
62894;SDS011;49204;44.916;37.998;2023-03-23T04:08:36;25.25;;;11.80;;
62894;SDS011;49204;44.916;37.998;2023-03-23T04:11:05;24.67;;;8.45;;
62894;SDS011;49204;44.916;37.998;2023-03-23T04:13:35;17.90;;;7.55;;
62894;SDS011;49204;44.916;37.998;2023-03-23T04:16:06;26.05;;;7.72;;
62894;SDS011;49204;44.916;37.998;2023-03-23T04:18:35;16.52;;;7.35;;
62894;SDS011;49204;44.916;37.998;2023-03-23T04:21:04;19.62;;;7.72;;
62894;SDS011;49204;44.916;37.998;2023-03-23T04:23:34;21.00;;;7.83;;
62894;SDS011;49204;44.916;37.998;2023-03-23T04:26:05;18.12;;;7.37;;
62894;SDS011;49204;44.916;37.998;2023-03-23T04:28:36;17.98;;;8.05;;
62894;SDS011;49204;44.916;37.998;2023-03-23T04:31:13;19.00;;;7.08;;
62894;SDS011;49204;44.916;37.998;2023-03-23T04:33:43;18.12;;;8.05;;
62894;SDS011;49204;44.916;37.998;2023-03-23T04:36:13;16.60;;;7.47;;
62894;SDS011;49204;44.916;37.998;2023-03-23T04:38:46;19.77;;;7.12;;
62894;SDS011;49204;44.916;37.998;2023-03-23T04:41:15;14.73;;;6.83;;
62894;SDS011;49204;44.916;37.998;2023-03-23T04:43:46;15.45;;;7.12;;
62894;SDS011;49204;44.916;37.998;2023-03-23T04:46:21;18.95;;;7.53;;
62894;SDS011;49204;44.916;37.998;2023-03-23T04:48:50;17.42;;;7.08;;
62894;SDS011;49204;44.916;37.998;2023-03-23T04:51:22;16.77;;;7.05;;
62894;SDS011;49204;44.916;37.998;2023-03-23T04:53:51;19.20;;;7.78;;
62894;SDS011;49204;44.916;37.998;2023-03-23T04:56:22;21.48;;;7.92;;
62894;SDS011;49204;44.916;37.998;2023-03-23T04:58:52;13.90;;;6.47;;
62894;SDS011;49204;44.916;37.998;2023-03-23T05:01:32;18.73;;;7.85;;
62894;SDS011;49204;44.916;37.998;2023-03-23T05:04:09;18.57;;;8.08;;
62894;SDS011;49204;44.916;37.998;2023-03-23T05:06:40;15.63;;;6.53;;
62894;SDS011;49204;44.916;37.998;2023-03-23T05:09:12;21.25;;;8.18;;
62894;SDS011;49204;44.916;37.998;2023-03-23T05:11:40;18.00;;;8.08;;
62894;SDS011;49204;44.916;37.998;2023-03-23T05:14:09;22.60;;;8.50;;
62894;SDS011;49204;44.916;37.998;2023-03-23T05:16:39;17.67;;;8.05;;
62894;SDS011;49204;44.916;37.998;2023-03-23T05:19:09;19.55;;;9.15;;
62894;SDS011;49204;44.916;37.998;2023-03-23T05:21:37;18.15;;;8.65;;
62894;SDS011;49204;44.916;37.998;2023-03-23T05:24:06;24.60;;;10.20;;
62894;SDS011;49204;44.916;37.998;2023-03-23T05:26:35;40.40;;;10.00;;
62894;SDS011;49204;44.916;37.998;2023-03-23T05:29:05;18.05;;;8.85;;
62894;SDS011;49204;44.916;37.998;2023-03-23T05:31:36;26.80;;;9.90;;
62894;SDS011;49204;44.916;37.998;2023-03-23T05:34:05;19.45;;;8.28;;
62894;SDS011;49204;44.916;37.998;2023-03-23T05:36:38;22.87;;;8.83;;
62894;SDS011;49204;44.916;37.998;2023-03-23T05:39:08;38.10;;;10.98;;
62894;SDS011;49204;44.916;37.998;2023-03-23T05:41:51;23.80;;;9.45;;
62894;SDS011;49204;44.916;37.998;2023-03-23T05:44:21;22.20;;;9.45;;
62894;SDS011;49204;44.916;37.998;2023-03-23T05:46:51;25.97;;;10.82;;
62894;SDS011;49204;44.916;37.998;2023-03-23T05:49:20;25.70;;;10.55;;
62894;SDS011;49204;44.916;37.998;2023-03-23T05:51:52;21.30;;;9.80;;
62894;SDS011;49204;44.916;37.998;2023-03-23T05:54:21;24.75;;;10.00;;
62894;SDS011;49204;44.916;37.998;2023-03-23T05:56:50;25.97;;;11.08;;
62894;SDS011;49204;44.916;37.998;2023-03-23T05:59:38;27.77;;;9.85;;
62894;SDS011;49204;44.916;37.998;2023-03-23T06:02:09;28.85;;;10.60;;
62894;SDS011;49204;44.916;37.998;2023-03-23T06:04:41;23.12;;;9.43;;
62894;SDS011;49204;44.916;37.998;2023-03-23T06:07:11;24.98;;;10.60;;
62894;SDS011;49204;44.916;37.998;2023-03-23T06:09:42;28.92;;;9.50;;
62894;SDS011;49204;44.916;37.998;2023-03-23T06:12:15;29.80;;;12.15;;
62894;SDS011;49204;44.916;37.998;2023-03-23T06:14:55;30.25;;;12.18;;
62894;SDS011;49204;44.916;37.998;2023-03-23T06:17:25;38.00;;;13.95;;
62894;SDS011;49204;44.916;37.998;2023-03-23T06:19:55;39.65;;;15.40;;
62894;SDS011;49204;44.916;37.998;2023-03-23T06:22:25;40.35;;;15.18;;
62894;SDS011;49204;44.916;37.998;2023-03-23T06:27:28;42.48;;;17.52;;
62894;SDS011;49204;44.916;37.998;2023-03-23T06:29:57;45.00;;;19.65;;
62894;SDS011;49204;44.916;37.998;2023-03-23T06:32:26;45.03;;;18.92;;
62894;SDS011;49204;44.916;37.998;2023-03-23T06:34:57;46.60;;;15.98;;
62894;SDS011;49204;44.916;37.998;2023-03-23T06:37:43;32.40;;;14.38;;
62894;SDS011;49204;44.916;37.998;2023-03-23T06:40:14;41.85;;;14.68;;
62894;SDS011;49204;44.916;37.998;2023-03-23T06:42:46;41.50;;;15.25;;
62894;SDS011;49204;44.916;37.998;2023-03-23T06:45:22;42.53;;;15.60;;
62894;SDS011;49204;44.916;37.998;2023-03-23T06:47:52;38.30;;;17.10;;
62894;SDS011;49204;44.916;37.998;2023-03-23T06:50:21;33.28;;;14.55;;
62894;SDS011;49204;44.916;37.998;2023-03-23T06:52:50;30.08;;;14.15;;
62894;SDS011;49204;44.916;37.998;2023-03-23T06:55:19;34.08;;;14.13;;
62894;SDS011;49204;44.916;37.998;2023-03-23T06:57:48;47.45;;;16.50;;
62894;SDS011;49204;44.916;37.998;2023-03-23T07:00:18;29.35;;;12.43;;
62894;SDS011;49204;44.916;37.998;2023-03-23T07:02:47;43.15;;;18.82;;
62894;SDS011;49204;44.916;37.998;2023-03-23T07:05:16;39.58;;;16.27;;
62894;SDS011;49204;44.916;37.998;2023-03-23T07:07:45;37.90;;;16.50;;
62894;SDS011;49204;44.916;37.998;2023-03-23T07:10:22;38.15;;;14.63;;
62894;SDS011;49204;44.916;37.998;2023-03-23T07:12:51;32.38;;;15.32;;
62894;SDS011;49204;44.916;37.998;2023-03-23T07:15:20;32.50;;;14.63;;
62894;SDS011;49204;44.916;37.998;2023-03-23T07:17:51;35.92;;;15.60;;
62894;SDS011;49204;44.916;37.998;2023-03-23T07:20:28;26.27;;;13.80;;
62894;SDS011;49204;44.916;37.998;2023-03-23T07:22:58;29.63;;;13.62;;
62894;SDS011;49204;44.916;37.998;2023-03-23T07:25:30;29.50;;;13.70;;
62894;SDS011;49204;44.916;37.998;2023-03-23T07:28:00;33.20;;;12.60;;
62894;SDS011;49204;44.916;37.998;2023-03-23T07:30:30;27.05;;;12.23;;
62894;SDS011;49204;44.916;37.998;2023-03-23T07:32:58;26.50;;;12.65;;
62894;SDS011;49204;44.916;37.998;2023-03-23T07:35:29;22.55;;;11.33;;
62894;SDS011;49204;44.916;37.998;2023-03-23T07:37:59;19.25;;;10.75;;
62894;SDS011;49204;44.916;37.998;2023-03-23T07:40:29;23.12;;;11.50;;
62894;SDS011;49204;44.916;37.998;2023-03-23T07:43:01;26.65;;;12.07;;
62894;SDS011;49204;44.916;37.998;2023-03-23T07:45:32;32.67;;;14.50;;
62894;SDS011;49204;44.916;37.998;2023-03-23T07:48:01;28.92;;;12.00;;
62894;SDS011;49204;44.916;37.998;2023-03-23T07:50:30;19.25;;;9.60;;
62894;SDS011;49204;44.916;37.998;2023-03-23T07:53:01;24.60;;;11.50;;
62894;SDS011;49204;44.916;37.998;2023-03-23T07:55:30;25.17;;;13.15;;
62894;SDS011;49204;44.916;37.998;2023-03-23T07:58:07;15.53;;;7.83;;
62894;SDS011;49204;44.916;37.998;2023-03-23T08:00:36;22.00;;;9.70;;
62894;SDS011;49204;44.916;37.998;2023-03-23T08:03:07;19.00;;;9.33;;
62894;SDS011;49204;44.916;37.998;2023-03-23T08:05:52;17.90;;;7.67;;
62894;SDS011;49204;44.916;37.998;2023-03-23T08:08:25;21.85;;;11.60;;
62894;SDS011;49204;44.916;37.998;2023-03-23T08:11:07;28.23;;;12.05;;
62894;SDS011;49204;44.916;37.998;2023-03-23T08:13:48;18.77;;;8.03;;
62894;SDS011;49204;44.916;37.998;2023-03-23T08:16:33;24.30;;;9.78;;
62894;SDS011;49204;44.916;37.998;2023-03-23T08:19:09;17.07;;;6.95;;
62894;SDS011;49204;44.916;37.998;2023-03-23T08:21:46;13.72;;;6.78;;
62894;SDS011;49204;44.916;37.998;2023-03-23T08:24:22;22.75;;;8.33;;
62894;SDS011;49204;44.916;37.998;2023-03-23T08:26:55;16.15;;;7.62;;
62894;SDS011;49204;44.916;37.998;2023-03-23T08:29:26;15.28;;;7.58;;
62894;SDS011;49204;44.916;37.998;2023-03-23T08:32:02;12.23;;;5.87;;
62894;SDS011;49204;44.916;37.998;2023-03-23T08:34:39;15.50;;;7.37;;
62894;SDS011;49204;44.916;37.998;2023-03-23T08:37:20;15.00;;;6.97;;
62894;SDS011;49204;44.916;37.998;2023-03-23T08:39:51;17.73;;;6.83;;
62894;SDS011;49204;44.916;37.998;2023-03-23T08:42:38;17.15;;;6.65;;
62894;SDS011;49204;44.916;37.998;2023-03-23T08:45:27;15.78;;;6.80;;
62894;SDS011;49204;44.916;37.998;2023-03-23T08:48:13;16.62;;;6.67;;
62894;SDS011;49204;44.916;37.998;2023-03-23T08:50:44;19.50;;;7.83;;
62894;SDS011;49204;44.916;37.998;2023-03-23T08:53:27;15.38;;;7.50;;
62894;SDS011;49204;44.916;37.998;2023-03-23T08:56:09;13.75;;;6.70;;
62894;SDS011;49204;44.916;37.998;2023-03-23T08:58:44;15.95;;;7.42;;
62894;SDS011;49204;44.916;37.998;2023-03-23T09:01:32;13.35;;;6.05;;
62894;SDS011;49204;44.916;37.998;2023-03-23T09:04:21;15.53;;;7.67;;
62894;SDS011;49204;44.916;37.998;2023-03-23T09:07:07;13.75;;;6.70;;
62894;SDS011;49204;44.916;37.998;2023-03-23T09:09:37;19.75;;;8.90;;
62894;SDS011;49204;44.916;37.998;2023-03-23T09:12:07;14.75;;;6.55;;
62894;SDS011;49204;44.916;37.998;2023-03-23T09:14:36;13.90;;;6.00;;
62894;SDS011;49204;44.916;37.998;2023-03-23T09:17:05;13.08;;;6.70;;
62894;SDS011;49204;44.916;37.998;2023-03-23T09:19:35;16.60;;;7.62;;
62894;SDS011;49204;44.916;37.998;2023-03-23T09:22:03;16.20;;;7.25;;
62894;SDS011;49204;44.916;37.998;2023-03-23T09:24:32;16.48;;;6.47;;
62894;SDS011;49204;44.916;37.998;2023-03-23T09:27:01;13.68;;;5.33;;
62894;SDS011;49204;44.916;37.998;2023-03-23T09:29:30;18.37;;;8.28;;
62894;SDS011;49204;44.916;37.998;2023-03-23T09:31:58;15.88;;;6.50;;
62894;SDS011;49204;44.916;37.998;2023-03-23T09:34:27;16.65;;;7.20;;
62894;SDS011;49204;44.916;37.998;2023-03-23T09:36:55;14.03;;;6.08;;
62894;SDS011;49204;44.916;37.998;2023-03-23T09:39:26;15.72;;;8.10;;
62894;SDS011;49204;44.916;37.998;2023-03-23T09:41:59;14.55;;;7.17;;
62894;SDS011;49204;44.916;37.998;2023-03-23T09:47:24;18.85;;;8.73;;
62894;SDS011;49204;44.916;37.998;2023-03-23T09:50:08;17.02;;;7.72;;
62894;SDS011;49204;44.916;37.998;2023-03-23T09:52:55;13.60;;;6.33;;
62894;SDS011;49204;44.916;37.998;2023-03-23T09:55:04;15.20;;;6.72;;
62894;SDS011;49204;44.916;37.998;2023-03-23T09:57:39;14.30;;;6.55;;
62894;SDS011;49204;44.916;37.998;2023-03-23T10:00:30;11.50;;;5.90;;
62894;SDS011;49204;44.916;37.998;2023-03-23T10:03:10;14.25;;;6.15;;
62894;SDS011;49204;44.916;37.998;2023-03-23T10:05:53;17.35;;;6.90;;
62894;SDS011;49204;44.916;37.998;2023-03-23T10:08:19;17.07;;;7.53;;
62894;SDS011;49204;44.916;37.998;2023-03-23T10:11:03;13.15;;;6.67;;
62894;SDS011;49204;44.916;37.998;2023-03-23T10:16:20;14.53;;;5.92;;
62894;SDS011;49204;44.916;37.998;2023-03-23T10:18:56;16.05;;;7.58;;
62894;SDS011;49204;44.916;37.998;2023-03-23T10:21:28;14.83;;;6.12;;
62894;SDS011;49204;44.916;37.998;2023-03-23T10:24:03;13.70;;;6.55;;
62894;SDS011;49204;44.916;37.998;2023-03-23T10:29:29;12.88;;;5.03;;
62894;SDS011;49204;44.916;37.998;2023-03-23T10:32:01;14.68;;;6.50;;
62894;SDS011;49204;44.916;37.998;2023-03-23T10:34:32;14.83;;;6.92;;
62894;SDS011;49204;44.916;37.998;2023-03-23T10:37:10;17.00;;;6.05;;
62894;SDS011;49204;44.916;37.998;2023-03-23T10:40:00;10.88;;;6.22;;
62894;SDS011;49204;44.916;37.998;2023-03-23T10:42:25;10.40;;;5.58;;
62894;SDS011;49204;44.916;37.998;2023-03-23T10:44:56;14.33;;;5.53;;
62894;SDS011;49204;44.916;37.998;2023-03-23T10:47:27;12.85;;;5.92;;
62894;SDS011;49204;44.916;37.998;2023-03-23T10:50:04;12.15;;;5.37;;
62894;SDS011;49204;44.916;37.998;2023-03-23T10:52:33;13.25;;;5.78;;
62894;SDS011;49204;44.916;37.998;2023-03-23T10:55:12;15.00;;;6.58;;
62894;SDS011;49204;44.916;37.998;2023-03-23T10:57:59;15.15;;;6.00;;
62894;SDS011;49204;44.916;37.998;2023-03-23T11:00:30;18.42;;;6.60;;
62894;SDS011;49204;44.916;37.998;2023-03-23T11:03:01;12.58;;;5.67;;
62894;SDS011;49204;44.916;37.998;2023-03-23T11:05:36;14.45;;;7.40;;
62894;SDS011;49204;44.916;37.998;2023-03-23T11:08:11;14.63;;;5.97;;
62894;SDS011;49204;44.916;37.998;2023-03-23T11:10:49;13.03;;;5.80;;
62894;SDS011;49204;44.916;37.998;2023-03-23T11:13:21;13.78;;;6.28;;
62894;SDS011;49204;44.916;37.998;2023-03-23T11:15:51;14.05;;;5.97;;
62894;SDS011;49204;44.916;37.998;2023-03-23T11:18:26;14.50;;;6.25;;
62894;SDS011;49204;44.916;37.998;2023-03-23T11:20:55;12.93;;;6.25;;
62894;SDS011;49204;44.916;37.998;2023-03-23T11:23:36;13.40;;;6.50;;
62894;SDS011;49204;44.916;37.998;2023-03-23T11:26:13;13.00;;;6.35;;
62894;SDS011;49204;44.916;37.998;2023-03-23T11:31:42;18.10;;;6.37;;
62894;SDS011;49204;44.916;37.998;2023-03-23T11:34:18;17.52;;;6.85;;
62894;SDS011;49204;44.916;37.998;2023-03-23T11:36:58;14.90;;;6.20;;
62894;SDS011;49204;44.916;37.998;2023-03-23T11:39:49;17.02;;;5.97;;
62894;SDS011;49204;44.916;37.998;2023-03-23T11:42:34;15.83;;;6.90;;
62894;SDS011;49204;44.916;37.998;2023-03-23T11:45:20;14.50;;;6.87;;
62894;SDS011;49204;44.916;37.998;2023-03-23T11:50:47;12.75;;;5.90;;
62894;SDS011;49204;44.916;37.998;2023-03-23T11:53:27;15.32;;;6.70;;
62894;SDS011;49204;44.916;37.998;2023-03-23T11:58:55;16.10;;;8.53;;
62894;SDS011;49204;44.916;37.998;2023-03-23T12:01:46;17.25;;;7.05;;
62894;SDS011;49204;44.916;37.998;2023-03-23T12:04:35;15.78;;;6.78;;
62894;SDS011;49204;44.916;37.998;2023-03-23T12:12:56;14.05;;;6.42;;
62894;SDS011;49204;44.916;37.998;2023-03-23T12:15:42;18.48;;;7.83;;
62894;SDS011;49204;44.916;37.998;2023-03-23T12:18:16;13.53;;;6.70;;
62894;SDS011;49204;44.916;37.998;2023-03-23T12:20:54;16.40;;;7.28;;
62894;SDS011;49204;44.916;37.998;2023-03-23T12:26:16;15.80;;;6.83;;
62894;SDS011;49204;44.916;37.998;2023-03-23T12:31:58;15.03;;;6.47;;
62894;SDS011;49204;44.916;37.998;2023-03-23T12:34:45;15.65;;;6.35;;
62894;SDS011;49204;44.916;37.998;2023-03-23T12:43:03;12.25;;;6.12;;
62894;SDS011;49204;44.916;37.998;2023-03-23T12:46:04;13.53;;;6.20;;
62894;SDS011;49204;44.916;37.998;2023-03-23T12:48:39;15.18;;;6.42;;
62894;SDS011;49204;44.916;37.998;2023-03-23T12:53:52;12.40;;;6.47;;
62894;SDS011;49204;44.916;37.998;2023-03-23T12:56:26;12.45;;;6.50;;
62894;SDS011;49204;44.916;37.998;2023-03-23T12:59:05;12.07;;;6.35;;
62894;SDS011;49204;44.916;37.998;2023-03-23T13:01:44;14.33;;;6.87;;
62894;SDS011;49204;44.916;37.998;2023-03-23T13:04:20;16.60;;;6.42;;
62894;SDS011;49204;44.916;37.998;2023-03-23T13:06:47;15.30;;;7.95;;
62894;SDS011;49204;44.916;37.998;2023-03-23T13:11:57;18.48;;;9.93;;
62894;SDS011;49204;44.916;37.998;2023-03-23T13:14:32;24.07;;;12.13;;
62894;SDS011;49204;44.916;37.998;2023-03-23T13:17:24;21.37;;;10.40;;
62894;SDS011;49204;44.916;37.998;2023-03-23T13:22:45;30.97;;;14.10;;
62894;SDS011;49204;44.916;37.998;2023-03-23T13:25:19;27.10;;;11.15;;
62894;SDS011;49204;44.916;37.998;2023-03-23T13:27:59;31.57;;;12.58;;
62894;SDS011;49204;44.916;37.998;2023-03-23T13:30:28;40.28;;;14.93;;
62894;SDS011;49204;44.916;37.998;2023-03-23T13:33:04;26.87;;;12.63;;
62894;SDS011;49204;44.916;37.998;2023-03-23T13:35:35;25.65;;;11.97;;
62894;SDS011;49204;44.916;37.998;2023-03-23T13:38:13;24.63;;;12.10;;
62894;SDS011;49204;44.916;37.998;2023-03-23T13:40:44;34.30;;;14.00;;
62894;SDS011;49204;44.916;37.998;2023-03-23T13:43:13;27.98;;;12.15;;
62894;SDS011;49204;44.916;37.998;2023-03-23T13:45:46;31.40;;;12.05;;
62894;SDS011;49204;44.916;37.998;2023-03-23T13:50:52;31.48;;;12.43;;
62894;SDS011;49204;44.916;37.998;2023-03-23T13:53:43;33.95;;;12.03;;
62894;SDS011;49204;44.916;37.998;2023-03-23T13:56:06;25.37;;;10.15;;
62894;SDS011;49204;44.916;37.998;2023-03-23T13:58:44;25.02;;;10.85;;
62894;SDS011;49204;44.916;37.998;2023-03-23T14:01:32;19.90;;;9.05;;
62894;SDS011;49204;44.916;37.998;2023-03-23T14:04:06;23.00;;;9.28;;
62894;SDS011;49204;44.916;37.998;2023-03-23T14:06:39;16.05;;;8.23;;
62894;SDS011;49204;44.916;37.998;2023-03-23T14:09:36;20.50;;;8.65;;
62894;SDS011;49204;44.916;37.998;2023-03-23T14:12:01;20.88;;;8.95;;
62894;SDS011;49204;44.916;37.998;2023-03-23T14:14:40;22.25;;;8.48;;
62894;SDS011;49204;44.916;37.998;2023-03-23T14:17:22;26.20;;;8.40;;
62894;SDS011;49204;44.916;37.998;2023-03-23T14:19:48;24.75;;;8.90;;
62894;SDS011;49204;44.916;37.998;2023-03-23T14:22:25;24.80;;;8.73;;
62894;SDS011;49204;44.916;37.998;2023-03-23T14:25:13;22.32;;;9.83;;
62894;SDS011;49204;44.916;37.998;2023-03-23T14:27:40;27.00;;;10.13;;
62894;SDS011;49204;44.916;37.998;2023-03-23T14:30:13;23.50;;;9.88;;
62894;SDS011;49204;44.916;37.998;2023-03-23T14:32:44;26.73;;;11.50;;
62894;SDS011;49204;44.916;37.998;2023-03-23T14:35:21;31.20;;;11.83;;
62894;SDS011;49204;44.916;37.998;2023-03-23T14:37:53;21.55;;;10.45;;
62894;SDS011;49204;44.916;37.998;2023-03-23T14:40:22;24.60;;;10.70;;
62894;SDS011;49204;44.916;37.998;2023-03-23T14:42:56;21.35;;;9.98;;
62894;SDS011;49204;44.916;37.998;2023-03-23T14:45:27;23.80;;;10.80;;
62894;SDS011;49204;44.916;37.998;2023-03-23T14:47:57;22.90;;;10.63;;
62894;SDS011;49204;44.916;37.998;2023-03-23T14:55:49;27.58;;;11.30;;
62894;SDS011;49204;44.916;37.998;2023-03-23T14:58:20;26.70;;;10.82;;
62894;SDS011;49204;44.916;37.998;2023-03-23T15:00:58;22.10;;;9.78;;
62894;SDS011;49204;44.916;37.998;2023-03-23T15:03:28;28.45;;;11.83;;
62894;SDS011;49204;44.916;37.998;2023-03-23T15:05:59;18.77;;;9.50;;
62894;SDS011;49204;44.916;37.998;2023-03-23T15:08:30;30.52;;;11.33;;
62894;SDS011;49204;44.916;37.998;2023-03-23T15:11:03;37.67;;;13.13;;
62894;SDS011;49204;44.916;37.998;2023-03-23T15:13:35;46.80;;;18.40;;
62894;SDS011;49204;44.916;37.998;2023-03-23T15:16:06;28.57;;;13.00;;
62894;SDS011;49204;44.916;37.998;2023-03-23T15:18:37;34.18;;;13.68;;
62894;SDS011;49204;44.916;37.998;2023-03-23T15:21:09;32.58;;;13.03;;
62894;SDS011;49204;44.916;37.998;2023-03-23T15:23:43;36.90;;;13.13;;
62894;SDS011;49204;44.916;37.998;2023-03-23T15:26:26;39.65;;;13.83;;
62894;SDS011;49204;44.916;37.998;2023-03-23T15:28:50;35.85;;;13.78;;
62894;SDS011;49204;44.916;37.998;2023-03-23T15:31:30;50.58;;;16.23;;
62894;SDS011;49204;44.916;37.998;2023-03-23T15:34:00;48.10;;;17.42;;
62894;SDS011;49204;44.916;37.998;2023-03-23T15:36:33;44.77;;;18.48;;
62894;SDS011;49204;44.916;37.998;2023-03-23T15:39:03;47.27;;;18.98;;
62894;SDS011;49204;44.916;37.998;2023-03-23T15:41:33;53.38;;;19.20;;
62894;SDS011;49204;44.916;37.998;2023-03-23T15:44:10;41.20;;;16.85;;
62894;SDS011;49204;44.916;37.998;2023-03-23T15:46:50;50.40;;;18.20;;
62894;SDS011;49204;44.916;37.998;2023-03-23T15:49:20;39.10;;;16.07;;
62894;SDS011;49204;44.916;37.998;2023-03-23T15:51:52;44.95;;;17.55;;
62894;SDS011;49204;44.916;37.998;2023-03-23T15:54:21;37.33;;;15.83;;
62894;SDS011;49204;44.916;37.998;2023-03-23T15:56:50;40.92;;;17.55;;
62894;SDS011;49204;44.916;37.998;2023-03-23T15:59:18;46.15;;;16.00;;
62894;SDS011;49204;44.916;37.998;2023-03-23T16:01:47;31.20;;;15.10;;
62894;SDS011;49204;44.916;37.998;2023-03-23T16:04:17;30.15;;;13.20;;